createdAt,value
2023-01-19T06:00:29.300Z,8.75
2023-01-19T06:02:56.431Z,8.15
2023-01-19T06:05:23.435Z,9.00
2023-01-19T06:07:50.287Z,8.60
2023-01-19T06:10:17.622Z,8.60
2023-01-19T06:12:44.971Z,8.75
2023-01-19T06:15:13.157Z,9.35
2023-01-19T06:17:40.089Z,9.43
2023-01-19T06:20:07.861Z,9.00
2023-01-19T06:22:34.579Z,8.65
2023-01-19T06:25:02.381Z,9.13
2023-01-19T06:27:29.238Z,8.55
2023-01-19T06:29:56.413Z,9.65
2023-01-19T06:32:23.231Z,8.93
2023-01-19T06:34:58.904Z,9.45
2023-01-19T06:37:31.693Z,9.43
2023-01-19T06:39:59.371Z,9.85
2023-01-19T06:42:29.195Z,9.18
2023-01-19T06:44:59.827Z,9.30
2023-01-19T06:47:30.467Z,8.77
2023-01-19T06:50:02.238Z,8.48
2023-01-19T06:52:29.125Z,8.57
2023-01-19T06:54:56.822Z,8.38
2023-01-19T06:57:25.798Z,8.50
2023-01-19T06:59:54.038Z,9.15
2023-01-19T07:02:34.999Z,8.48
2023-01-19T07:05:02.827Z,8.60
2023-01-19T07:07:30.186Z,8.95
2023-01-19T07:09:57.876Z,8.13
2023-01-19T07:12:24.691Z,8.20
2023-01-19T07:14:57.540Z,7.53
2023-01-19T07:17:24.577Z,8.68
2023-01-19T07:19:51.727Z,9.02
2023-01-19T07:22:18.686Z,8.93
2023-01-19T07:24:45.843Z,8.75
2023-01-19T07:27:13.395Z,9.05
2023-01-19T07:29:44.362Z,8.95
2023-01-19T07:32:16.960Z,8.50
2023-01-19T07:34:49.880Z,8.93
2023-01-19T07:37:20.570Z,8.15
2023-01-19T07:39:47.452Z,8.43
2023-01-19T07:42:15.089Z,7.07
2023-01-19T07:44:47.459Z,8.82
2023-01-19T07:47:15.256Z,7.85
2023-01-19T07:49:42.613Z,7.95
2023-01-19T07:52:13.238Z,8.18
2023-01-19T07:55:04.723Z,7.88
2023-01-19T07:57:32.161Z,7.65
2023-01-19T08:00:03.079Z,7.40
2023-01-19T08:02:39.647Z,7.53
2023-01-19T08:05:07.352Z,8.45
2023-01-19T08:07:38.485Z,8.25
2023-01-19T08:10:05.931Z,8.35
2023-01-19T08:12:32.968Z,7.75
2023-01-19T08:15:02.865Z,7.13
2023-01-19T08:17:30.313Z,8.10
2023-01-19T08:19:57.581Z,6.80
2023-01-19T08:26:50.862Z,6.82
2023-01-19T08:29:17.843Z,7.30
2023-01-19T08:31:44.952Z,7.57
2023-01-19T08:34:11.669Z,7.47
2023-01-19T08:36:40.223Z,6.97
2023-01-19T08:39:06.830Z,7.40
2023-01-19T08:41:34.082Z,8.27
2023-01-19T08:44:00.640Z,7.88
2023-01-19T08:46:27.908Z,7.40
2023-01-19T08:48:54.872Z,7.95
2023-01-19T08:51:22.535Z,7.13
2023-01-19T08:53:49.118Z,6.97
2023-01-19T08:56:16.247Z,6.78
2023-01-19T08:58:44.593Z,7.13
2023-01-19T09:01:17.264Z,7.07
2023-01-19T09:03:44.539Z,6.88
2023-01-19T09:06:14.448Z,6.63
2023-01-19T09:08:41.791Z,7.18
2023-01-19T09:11:12.935Z,6.50
2023-01-19T09:13:41.412Z,7.50
2023-01-19T09:16:08.632Z,6.10
2023-01-19T09:18:36.323Z,7.05
2023-01-19T09:21:03.913Z,6.57
2023-01-19T09:23:31.108Z,7.00
2023-01-19T09:26:00.952Z,7.63
2023-01-19T09:28:29.610Z,8.20
2023-01-19T09:30:57.062Z,8.05
2023-01-19T09:33:25.030Z,8.20
2023-01-19T09:35:51.968Z,7.95
2023-01-19T09:38:20.295Z,8.05
2023-01-19T09:40:59.484Z,7.75
2023-01-19T09:43:35.796Z,7.72
2023-01-19T09:46:22.260Z,7.97
2023-01-19T09:48:54.311Z,8.05
2023-01-19T09:51:36.126Z,7.93
2023-01-19T09:54:36.930Z,8.05
2023-01-19T09:57:09.681Z,8.52
2023-01-19T09:59:38.972Z,8.02
2023-01-19T10:02:28.184Z,9.10
2023-01-19T10:05:22.395Z,9.05
2023-01-19T10:07:58.692Z,8.40
2023-01-19T10:10:28.101Z,9.00
2023-01-19T10:13:09.259Z,11.80
2023-01-19T10:15:57.929Z,9.43
2023-01-19T10:18:35.193Z,9.13
2023-01-19T10:21:13.148Z,9.43
2023-01-19T10:23:52.666Z,7.70
2023-01-19T10:26:25.386Z,7.70
2023-01-19T10:29:04.143Z,7.03
2023-01-19T10:31:33.939Z,7.38
2023-01-19T10:34:01.208Z,7.10
2023-01-19T10:36:39.266Z,7.00
2023-01-19T10:39:07.509Z,7.10
2023-01-19T10:41:42.650Z,7.30
2023-01-19T10:44:11.147Z,6.85
2023-01-19T10:46:45.954Z,6.35
2023-01-19T10:49:28.528Z,6.95
2023-01-19T10:51:57.716Z,7.05
2023-01-19T10:54:26.786Z,6.88
2023-01-19T10:57:03.341Z,6.60
2023-01-19T10:59:33.335Z,7.93
2023-01-19T11:04:31.939Z,7.05
2023-01-19T11:07:34.581Z,6.75
2023-01-19T11:10:23.948Z,6.72
2023-01-19T11:15:54.818Z,6.78
2023-01-19T11:18:35.789Z,7.82
2023-01-19T11:21:06.921Z,6.78
2023-01-19T11:23:42.286Z,6.82
2023-01-19T11:26:26.270Z,7.30
2023-01-19T11:28:56.289Z,7.70
2023-01-19T11:34:17.851Z,7.43
2023-01-19T11:36:56.765Z,8.00
2023-01-19T11:39:28.282Z,7.75
2023-01-19T11:41:58.924Z,7.90
2023-01-19T11:45:02.115Z,7.50
2023-01-19T11:47:41.436Z,8.85
2023-01-19T11:50:16.913Z,9.40
2023-01-19T11:52:43.980Z,7.72
2023-01-19T11:55:38.466Z,8.77
2023-01-19T11:58:06.100Z,9.27
2023-01-19T12:01:08.275Z,8.57
2023-01-19T12:03:42.655Z,8.23
2023-01-19T12:06:24.219Z,8.80
2023-01-19T12:08:58.808Z,9.27
2023-01-19T12:11:32.531Z,9.80
2023-01-19T12:14:00.561Z,9.15
2023-01-19T12:16:30.485Z,10.13
2023-01-19T12:19:04.653Z,9.55
2023-01-19T12:21:31.266Z,9.65
2023-01-19T12:24:30.647Z,10.50
2023-01-19T12:27:00.365Z,9.48
2023-01-19T12:29:36.236Z,8.85
2023-01-19T12:32:16.595Z,10.75
2023-01-19T12:34:47.969Z,10.27
2023-01-19T12:37:33.351Z,12.00
2023-01-19T12:40:05.844Z,9.60
2023-01-19T12:42:33.848Z,8.95
2023-01-19T12:45:16.653Z,11.15
2023-01-19T12:47:56.294Z,13.25
2023-01-19T12:55:31.410Z,26.92
2023-01-19T12:58:05.384Z,16.80
2023-01-19T13:00:38.580Z,13.55
2023-01-19T13:03:17.612Z,15.98
2023-01-19T13:05:44.136Z,13.97
2023-01-19T13:08:14.142Z,17.20
2023-01-19T13:13:36.987Z,12.65
2023-01-19T13:16:19.016Z,11.68
2023-01-19T13:19:07.457Z,14.70
2023-01-19T13:21:39.385Z,16.77
2023-01-19T13:24:13.159Z,15.52
2023-01-19T13:27:00.110Z,17.33
2023-01-19T13:29:34.170Z,14.77
2023-01-19T13:32:04.964Z,14.18
2023-01-19T13:34:59.573Z,14.13
2023-01-19T13:37:39.929Z,13.93
2023-01-19T13:40:08.436Z,15.07
2023-01-19T13:42:41.639Z,13.50
2023-01-19T13:45:31.046Z,13.35
2023-01-19T13:48:00.943Z,13.05
2023-01-19T13:50:34.238Z,14.80
2023-01-19T13:53:02.655Z,15.52
2023-01-19T13:55:31.559Z,14.15
2023-01-19T13:57:58.822Z,13.90
2023-01-19T14:00:31.237Z,14.18
2023-01-19T14:03:13.086Z,16.15
2023-01-19T14:05:42.947Z,14.13
2023-01-19T14:10:42.085Z,13.27
2023-01-19T14:13:30.049Z,14.90
2023-01-19T14:15:59.868Z,14.20
2023-01-19T14:18:31.077Z,16.10
2023-01-19T14:21:24.410Z,14.00
2023-01-19T14:24:14.391Z,14.02
2023-01-19T14:26:53.933Z,15.18
2023-01-19T14:29:29.601Z,12.55
2023-01-19T14:32:02.149Z,13.25
2023-01-19T14:34:53.987Z,17.02
2023-01-19T14:37:30.168Z,16.95
2023-01-19T14:40:11.100Z,15.50
2023-01-19T14:42:45.207Z,15.77
2023-01-19T14:45:15.536Z,16.30
2023-01-19T14:47:44.376Z,13.73
2023-01-19T14:50:17.303Z,17.65
2023-01-19T14:52:52.086Z,14.68
2023-01-19T14:55:26.068Z,16.27
2023-01-19T14:57:54.114Z,16.20
2023-01-19T15:00:21.794Z,15.40
2023-01-19T15:02:48.460Z,15.98
2023-01-19T15:05:16.024Z,14.73
2023-01-19T15:07:45.434Z,15.65
2023-01-19T15:10:22.419Z,13.57
2023-01-19T15:12:50.784Z,13.85
2023-01-19T15:15:23.070Z,14.70
2023-01-19T15:17:50.481Z,17.70
2023-01-19T15:20:22.525Z,15.85
2023-01-19T15:22:49.948Z,15.38
2023-01-19T15:25:20.063Z,14.15
2023-01-19T15:27:48.081Z,15.10
2023-01-19T15:30:25.242Z,14.55
2023-01-19T15:32:51.831Z,13.88
2023-01-19T15:35:23.865Z,14.55
2023-01-19T15:37:51.060Z,15.02
2023-01-19T15:40:19.856Z,14.88
2023-01-19T15:42:46.721Z,15.43
2023-01-19T15:45:36.413Z,15.38
2023-01-19T15:48:05.784Z,14.73
2023-01-19T15:50:35.853Z,15.35
2023-01-19T15:55:29.596Z,17.13
2023-01-19T15:58:01.636Z,19.33
2023-01-19T16:00:33.885Z,24.55
2023-01-19T16:03:01.780Z,23.45
2023-01-19T16:05:41.796Z,20.75
2023-01-19T16:08:10.610Z,19.90
2023-01-19T16:10:37.878Z,19.98
2023-01-19T16:13:04.448Z,18.27
2023-01-19T16:15:31.327Z,20.30
2023-01-19T16:17:58.391Z,17.98
2023-01-19T16:20:25.667Z,21.98
2023-01-19T16:22:52.904Z,22.40
2023-01-19T16:25:22.936Z,21.27
2023-01-19T16:27:50.383Z,20.92
2023-01-19T16:30:19.564Z,21.10
2023-01-19T16:32:46.431Z,21.92
2023-01-19T16:35:15.753Z,21.45
2023-01-19T16:37:42.334Z,22.85
2023-01-19T16:40:10.357Z,25.55
2023-01-19T16:42:37.074Z,23.65
2023-01-19T16:45:04.221Z,25.17
2023-01-19T16:47:30.819Z,26.58
2023-01-19T16:49:57.644Z,33.85
2023-01-19T16:52:24.221Z,44.75
2023-01-19T16:54:54.837Z,54.08
2023-01-19T16:57:21.568Z,49.97
2023-01-19T16:59:53.274Z,47.83
2023-01-19T17:02:24.785Z,43.83
2023-01-19T17:04:52.091Z,38.13
2023-01-19T17:07:19.371Z,28.13
2023-01-19T17:09:46.338Z,30.88
2023-01-19T17:12:13.302Z,29.73
2023-01-19T17:14:39.909Z,37.58
2023-01-19T17:17:09.584Z,31.33
2023-01-19T17:19:36.310Z,29.35
2023-01-19T17:22:02.869Z,28.05
2023-01-19T17:24:29.547Z,27.27
2023-01-19T17:26:56.446Z,29.52
2023-01-19T17:29:22.984Z,27.48
2023-01-19T17:31:53.006Z,28.75
2023-01-19T17:34:19.549Z,30.98
2023-01-19T17:36:46.777Z,28.00
2023-01-19T17:39:14.719Z,29.13
2023-01-19T17:41:42.190Z,31.95
2023-01-19T17:44:10.471Z,28.85
2023-01-19T17:46:39.015Z,29.38
2023-01-19T17:49:07.719Z,25.95
2023-01-19T17:51:34.890Z,25.80
2023-01-19T17:54:01.870Z,27.85
2023-01-19T17:56:30.672Z,29.23
2023-01-19T17:58:58.443Z,28.70
2023-01-19T18:01:28.831Z,25.10
2023-01-19T18:03:56.059Z,25.35
2023-01-19T18:06:22.990Z,25.23
2023-01-19T18:08:50.078Z,25.98
2023-01-19T18:11:19.208Z,26.15
2023-01-19T18:13:48.556Z,25.08
2023-01-19T18:16:26.126Z,26.50
2023-01-19T18:18:54.457Z,26.00
2023-01-19T18:21:22.003Z,24.17
2023-01-19T18:23:50.569Z,23.88
2023-01-19T18:26:22.548Z,24.73
2023-01-19T18:28:49.540Z,25.95
2023-01-19T18:31:18.995Z,24.15
2023-01-19T18:33:46.759Z,26.58
2023-01-19T18:36:14.690Z,24.63
2023-01-19T18:38:41.947Z,24.60
2023-01-19T18:41:14.797Z,24.70
2023-01-19T18:43:41.839Z,22.92
2023-01-19T18:46:09.802Z,25.60
2023-01-19T18:48:38.130Z,23.05
2023-01-19T18:51:10.093Z,23.75
2023-01-19T18:53:36.723Z,24.65
2023-01-19T18:56:05.005Z,25.20
2023-01-19T18:58:32.899Z,24.63
2023-01-19T19:01:00.961Z,24.08
2023-01-19T19:03:28.181Z,23.05
2023-01-19T19:05:55.233Z,23.02
2023-01-19T19:08:21.874Z,24.88
2023-01-19T19:10:48.804Z,25.50
2023-01-19T19:13:16.534Z,22.08
2023-01-19T19:15:44.708Z,27.02
2023-01-19T19:18:13.876Z,25.30
2023-01-19T19:23:10.152Z,35.85
2023-01-19T19:25:37.797Z,29.48
2023-01-19T19:28:04.547Z,25.23
2023-01-19T19:30:34.641Z,25.00
2023-01-19T19:33:01.490Z,23.20
2023-01-19T19:35:28.694Z,23.05
2023-01-19T19:37:57.475Z,20.63
2023-01-19T19:40:26.772Z,22.23
2023-01-19T19:42:53.720Z,23.37
2023-01-19T19:45:20.930Z,21.30
2023-01-19T19:47:47.505Z,23.30
2023-01-19T19:50:15.187Z,22.67
2023-01-19T19:52:42.576Z,23.90
2023-01-19T19:55:11.434Z,23.58
2023-01-19T19:57:38.107Z,23.73
2023-01-19T20:00:05.970Z,24.13
2023-01-19T20:02:36.529Z,25.27
2023-01-19T20:05:04.527Z,26.27
2023-01-19T20:07:31.213Z,27.00
2023-01-19T20:09:58.539Z,25.88
2023-01-19T20:12:25.203Z,27.20
2023-01-19T20:14:52.405Z,27.40
2023-01-19T20:17:20.644Z,27.08
2023-01-19T20:19:49.171Z,26.27
2023-01-19T20:22:16.018Z,27.70
2023-01-19T20:24:43.259Z,27.02
2023-01-19T20:27:10.017Z,26.75
2023-01-19T20:29:37.279Z,25.73
2023-01-19T20:32:04.028Z,24.80
2023-01-19T20:34:33.754Z,26.17
2023-01-19T20:37:01.616Z,31.13
2023-01-19T20:39:30.334Z,28.67
2023-01-19T20:41:57.427Z,31.98
2023-01-19T20:44:26.153Z,28.40
2023-01-19T20:46:54.183Z,29.30
2023-01-19T20:49:21.620Z,27.98
2023-01-19T20:51:49.884Z,26.75
2023-01-19T20:54:19.658Z,24.75
2023-01-19T20:56:46.248Z,24.63
2023-01-19T20:59:13.576Z,27.85
2023-01-19T21:01:40.943Z,29.13
2023-01-19T21:04:08.336Z,28.70
2023-01-19T21:06:35.444Z,26.95
2023-01-19T21:09:02.460Z,30.10
2023-01-19T21:11:29.084Z,30.13
2023-01-19T21:13:56.704Z,29.33
2023-01-19T21:16:28.562Z,30.92
2023-01-19T21:18:56.058Z,30.58
2023-01-19T21:21:30.302Z,29.13
2023-01-19T21:24:02.612Z,28.73
2023-01-19T21:26:30.153Z,29.25
2023-01-19T21:29:02.021Z,29.05
